createdAt,value
2023-01-05T07:17:19.371Z,1.37
2023-01-05T07:19:56.991Z,1.40
2023-01-05T07:22:34.073Z,1.33
2023-01-05T07:25:12.564Z,1.23
2023-01-05T07:27:55.234Z,1.00
2023-01-05T07:30:32.839Z,1.30
2023-01-05T07:33:12.355Z,1.33
2023-01-05T07:35:49.717Z,1.13
2023-01-05T07:38:26.538Z,1.00
2023-01-05T07:41:04.268Z,1.10
2023-01-05T07:43:41.123Z,1.00
2023-01-05T07:46:19.069Z,0.83
2023-01-05T07:48:58.955Z,1.30
2023-01-05T07:51:37.560Z,1.10
2023-01-05T07:54:14.507Z,1.20
2023-01-05T07:56:51.906Z,0.90
2023-01-05T07:59:28.775Z,1.20
2023-01-05T08:02:06.113Z,1.23
2023-01-05T08:04:45.812Z,1.13
2023-01-05T08:07:23.093Z,1.43
2023-01-05T08:10:12.252Z,1.97
2023-01-05T08:13:01.663Z,1.17
2023-01-05T08:15:38.634Z,1.20
2023-01-05T08:18:15.835Z,1.13
2023-01-05T08:21:01.127Z,1.03
2023-01-05T08:23:39.530Z,1.20
2023-01-05T08:26:18.913Z,1.47
2023-01-05T08:28:56.935Z,1.60
2023-01-05T08:31:37.898Z,1.90
2023-01-05T08:34:15.583Z,1.87
2023-01-05T08:36:55.009Z,1.40
2023-01-05T08:39:32.325Z,1.93
2023-01-05T08:42:09.306Z,1.43
2023-01-05T08:44:46.477Z,1.67
2023-01-05T08:47:28.007Z,1.60
2023-01-05T08:50:06.653Z,1.97
2023-01-05T08:52:46.306Z,1.83
2023-01-05T08:55:23.578Z,1.60
2023-01-05T08:58:00.789Z,1.57
2023-01-05T09:00:38.446Z,1.50
2023-01-05T09:03:15.428Z,1.70
2023-01-05T09:05:55.750Z,2.30
2023-01-05T09:08:36.801Z,1.53
2023-01-05T09:11:17.020Z,1.73
2023-01-05T09:13:56.928Z,1.40
2023-01-05T09:19:34.154Z,1.50
2023-01-05T09:22:11.745Z,1.90
2023-01-05T09:24:51.217Z,1.47
2023-01-05T09:27:28.469Z,1.33
2023-01-05T09:30:05.630Z,1.70
2023-01-05T09:32:42.976Z,1.60
2023-01-05T09:35:20.305Z,1.20
2023-01-05T09:37:57.954Z,1.80
2023-01-05T09:40:44.410Z,1.20
2023-01-05T09:43:29.277Z,1.27
2023-01-05T09:46:09.693Z,1.27
2023-01-05T09:48:53.927Z,1.80
2023-01-05T09:54:09.304Z,1.30
2023-01-05T09:59:52.659Z,1.50
2023-01-05T10:02:37.008Z,1.23
2023-01-05T10:05:17.666Z,1.43
2023-01-05T10:08:02.029Z,1.70
2023-01-05T10:11:13.467Z,1.67
2023-01-05T10:14:02.474Z,1.40
2023-01-05T10:16:39.943Z,0.93
2023-01-05T10:19:19.708Z,1.13
2023-01-05T10:22:09.619Z,1.23
2023-01-05T10:24:56.772Z,1.23
2023-01-05T10:27:42.886Z,1.30
2023-01-05T10:30:28.364Z,1.10
2023-01-05T10:33:40.171Z,1.30
2023-01-05T10:40:03.940Z,1.50
2023-01-05T10:42:55.057Z,1.27
2023-01-05T10:45:51.181Z,1.30
2023-01-05T10:48:37.935Z,0.93
2023-01-05T10:51:16.197Z,1.80
2023-01-05T10:53:53.672Z,1.43
2023-01-05T10:56:33.005Z,1.23
2023-01-05T10:59:15.736Z,1.43
2023-01-05T11:01:56.122Z,0.98
2023-01-05T11:04:35.394Z,1.40
2023-01-05T11:07:13.197Z,1.33
2023-01-05T11:09:52.495Z,1.50
2023-01-05T11:12:30.657Z,1.73
2023-01-05T11:15:09.531Z,1.37
2023-01-05T11:17:49.845Z,1.40
2023-01-05T11:20:26.767Z,1.40
2023-01-05T11:23:04.098Z,1.50
2023-01-05T11:25:43.447Z,1.47
2023-01-05T11:28:21.821Z,1.57
2023-01-05T11:31:05.367Z,1.63
2023-01-05T11:33:47.892Z,1.10
2023-01-05T11:36:24.938Z,1.30
2023-01-05T11:39:02.651Z,1.67
2023-01-05T11:41:39.663Z,1.30
2023-01-05T11:44:25.857Z,1.20
2023-01-05T11:47:03.266Z,1.60
2023-01-05T11:49:43.248Z,1.10
2023-01-05T11:52:38.978Z,1.30
2023-01-05T11:55:37.004Z,0.90
2023-01-05T11:58:27.935Z,1.10
2023-01-05T12:01:51.469Z,1.20
2023-01-05T12:05:04.823Z,1.67
2023-01-05T12:07:49.896Z,1.30
2023-01-05T12:10:51.911Z,1.00
2023-01-05T12:14:04.248Z,1.20
2023-01-05T12:16:52.724Z,0.90
2023-01-05T12:20:00.205Z,1.60
2023-01-05T12:23:06.354Z,1.60
2023-01-05T12:26:00.941Z,1.27
2023-01-05T12:36:02.922Z,1.33
2023-01-05T12:38:58.867Z,1.17
2023-01-05T12:42:08.748Z,1.40
2023-01-05T12:45:31.322Z,1.20
2023-01-05T12:48:13.147Z,1.00
2023-01-05T12:50:59.521Z,1.30
2023-01-05T12:53:53.407Z,1.40
2023-01-05T12:56:37.464Z,1.23
2023-01-05T13:02:06.742Z,1.40
2023-01-05T13:04:54.338Z,1.87
2023-01-05T13:07:41.393Z,2.00
2023-01-05T13:10:25.837Z,1.33
2023-01-05T13:13:07.388Z,1.20
2023-01-05T13:15:49.513Z,1.70
2023-01-05T13:18:30.192Z,2.30
2023-01-05T13:21:14.844Z,1.77
2023-01-05T13:23:59.045Z,2.20
2023-01-05T13:26:38.282Z,1.42
2023-01-05T13:29:26.305Z,1.20
2023-01-05T13:32:33.160Z,1.10
2023-01-05T13:35:42.363Z,1.70
2023-01-05T13:38:51.962Z,1.27
2023-01-05T13:41:58.001Z,1.00
2023-01-05T13:45:06.124Z,1.40
2023-01-05T13:51:27.013Z,1.20
2023-01-05T13:54:13.224Z,1.87
2023-01-05T13:56:54.291Z,1.70
2023-01-05T13:59:43.945Z,1.53
2023-01-05T14:02:35.977Z,1.50
2023-01-05T14:05:30.501Z,1.40
2023-01-05T14:08:18.156Z,1.40
2023-01-05T14:11:12.985Z,1.50
2023-01-05T14:13:57.869Z,1.60
2023-01-05T14:16:58.150Z,1.77
2023-01-05T14:19:55.601Z,1.70
2023-01-05T14:22:42.819Z,1.73
2023-01-05T14:25:55.970Z,1.77
2023-01-05T14:28:52.241Z,1.63
2023-01-05T14:31:50.922Z,2.10
2023-01-05T14:34:29.999Z,1.57
2023-01-05T14:37:10.186Z,2.20
2023-01-05T14:39:49.200Z,2.23
2023-01-05T14:42:35.973Z,1.80
2023-01-05T14:45:27.699Z,1.67
2023-01-05T14:48:09.222Z,1.70
2023-01-05T14:50:48.033Z,1.80
2023-01-05T14:53:44.350Z,1.87
2023-01-05T14:56:26.905Z,1.70
2023-01-05T14:59:20.367Z,1.40
2023-01-05T15:02:03.766Z,1.35
2023-01-05T15:04:44.013Z,1.63
2023-01-05T15:07:42.156Z,2.27
2023-01-05T15:10:43.120Z,1.67
2023-01-05T15:14:16.461Z,1.80
2023-01-05T15:17:48.345Z,2.00
2023-01-05T15:21:20.471Z,2.10
2023-01-05T15:24:41.331Z,2.90
2023-01-05T15:27:55.600Z,1.97
2023-01-05T15:31:11.761Z,2.25
2023-01-05T15:34:01.643Z,1.90
2023-01-05T15:36:45.756Z,1.83
2023-01-05T15:39:33.165Z,1.90
2023-01-05T15:42:12.461Z,1.90
2023-01-05T15:44:52.672Z,1.97
2023-01-05T15:47:32.771Z,2.43
2023-01-05T15:50:23.280Z,2.00
2023-01-05T15:53:02.780Z,2.47
2023-01-05T15:55:47.038Z,1.73
2023-01-05T15:58:25.982Z,1.93
2023-01-05T16:01:13.928Z,2.33
2023-01-05T16:03:52.534Z,2.00
2023-01-05T16:06:33.595Z,1.87
2023-01-05T16:09:22.131Z,2.27
2023-01-05T16:12:03.759Z,2.00
2023-01-05T16:14:45.780Z,1.63
2023-01-05T16:17:26.298Z,1.70
2023-01-05T16:20:08.836Z,1.80
2023-01-05T16:22:57.961Z,1.70
2023-01-05T16:25:44.487Z,1.90
2023-01-05T16:28:25.393Z,1.70
2023-01-05T16:31:02.297Z,2.13
2023-01-05T16:33:40.989Z,1.60
2023-01-05T16:36:26.544Z,2.00
2023-01-05T16:39:27.878Z,2.20
2023-01-05T16:42:40.490Z,2.30
2023-01-05T16:45:26.304Z,2.00
2023-01-05T16:48:03.877Z,3.90
2023-01-05T16:50:58.199Z,2.10
2023-01-05T16:53:36.870Z,2.13
2023-01-05T16:56:46.418Z,2.03
2023-01-05T16:59:48.640Z,3.03
2023-01-05T17:02:49.898Z,3.20
2023-01-05T17:05:31.329Z,2.30
2023-01-05T17:08:22.525Z,2.50
2023-01-05T17:11:02.113Z,2.50
2023-01-05T17:13:47.967Z,2.90
2023-01-05T17:16:25.954Z,2.83
2023-01-05T17:19:03.774Z,3.17
2023-01-05T17:21:40.705Z,2.70
2023-01-05T17:24:18.304Z,2.60
2023-01-05T17:26:55.175Z,2.80
2023-01-05T17:29:37.485Z,2.40
2023-01-05T17:32:14.894Z,2.80
2023-01-05T17:34:52.997Z,2.80
2023-01-05T17:37:34.311Z,2.47
2023-01-05T17:40:22.933Z,2.70
2023-01-05T17:43:00.053Z,2.53
2023-01-05T17:45:44.211Z,2.60
2023-01-05T17:48:21.484Z,2.60
2023-01-05T17:50:58.865Z,2.60
2023-01-05T17:53:36.373Z,2.30
2023-01-05T17:56:15.310Z,2.90
2023-01-05T17:58:54.872Z,2.50
2023-01-05T18:01:36.363Z,2.90
2023-01-05T18:04:13.970Z,2.47
2023-01-05T18:06:52.238Z,2.40
2023-01-05T18:09:29.568Z,2.20
2023-01-05T18:12:08.978Z,2.40
2023-01-05T18:14:46.890Z,2.50
2023-01-05T18:17:27.595Z,2.23
2023-01-05T18:20:09.224Z,2.20
2023-01-05T18:22:47.976Z,2.10
2023-01-05T18:25:26.203Z,2.60
2023-01-05T18:28:04.645Z,1.90
2023-01-05T18:30:46.814Z,2.23
2023-01-05T18:33:27.977Z,2.27
2023-01-05T18:36:11.534Z,2.47
2023-01-05T18:41:28.533Z,2.23
2023-01-05T18:44:06.387Z,2.27
2023-01-05T18:46:45.138Z,1.90
2023-01-05T18:49:25.102Z,2.30
2023-01-05T18:52:02.854Z,2.70
2023-01-05T18:54:40.653Z,2.43
2023-01-05T18:57:18.615Z,2.37
2023-01-05T18:59:56.524Z,2.30
2023-01-05T19:02:36.941Z,2.47
2023-01-05T19:05:17.347Z,2.93
2023-01-05T19:07:56.700Z,2.00
2023-01-05T19:10:35.356Z,2.30
2023-01-05T19:13:14.235Z,2.73
2023-01-05T19:15:51.110Z,2.53
2023-01-05T19:18:29.263Z,3.03
2023-01-05T19:21:09.958Z,3.23
2023-01-05T19:23:49.420Z,2.77
2023-01-05T19:26:29.183Z,3.03
2023-01-05T19:29:10.193Z,3.50
2023-01-05T19:31:48.062Z,2.73
2023-01-05T19:34:25.893Z,2.40
2023-01-05T19:37:06.625Z,2.90
2023-01-05T19:39:46.080Z,2.30
2023-01-05T19:42:24.142Z,2.80
2023-01-05T19:45:03.919Z,2.50
2023-01-05T19:47:43.666Z,2.67
2023-01-05T19:50:26.950Z,2.80
2023-01-05T19:53:07.055Z,2.63
2023-01-05T19:55:45.188Z,2.30
2023-01-05T19:58:26.580Z,2.33
2023-01-05T20:01:10.269Z,2.20
2023-01-05T20:03:48.501Z,2.03
2023-01-05T20:06:29.518Z,2.40
2023-01-05T20:09:14.087Z,2.50
2023-01-05T20:12:13.740Z,2.27
2023-01-05T20:14:54.462Z,2.30
2023-01-05T20:17:37.230Z,2.37
2023-01-05T20:20:17.526Z,2.40
2023-01-05T20:22:57.614Z,2.63
2023-01-05T20:25:41.192Z,2.60
2023-01-05T20:28:20.897Z,2.97
2023-01-05T20:30:59.134Z,3.87
2023-01-05T20:33:38.008Z,2.90
2023-01-05T20:36:19.109Z,3.00
2023-01-05T20:38:59.283Z,3.37
2023-01-05T20:41:47.834Z,2.77
2023-01-05T20:44:32.538Z,3.27
2023-01-05T20:47:14.156Z,3.30
2023-01-05T20:49:53.908Z,3.57
2023-01-05T20:52:33.629Z,3.50
2023-01-05T20:55:11.252Z,3.57
2023-01-05T20:57:52.466Z,3.50
2023-01-05T21:00:31.100Z,4.20
2023-01-05T21:03:08.902Z,3.37
2023-01-05T21:05:50.087Z,3.50
2023-01-05T21:08:27.197Z,3.23
2023-01-05T21:11:07.165Z,2.90
2023-01-05T21:13:47.659Z,3.30
2023-01-05T21:16:33.728Z,3.20
2023-01-05T21:19:27.918Z,3.10
2023-01-05T21:22:09.529Z,4.10
2023-01-05T21:24:47.694Z,3.53
2023-01-05T21:27:26.431Z,3.43
2023-01-05T21:30:07.483Z,3.43
2023-01-05T21:32:47.960Z,3.35
2023-01-05T21:35:26.401Z,3.67
2023-01-05T21:38:04.212Z,3.50
2023-01-05T21:40:41.259Z,4.20
2023-01-05T21:43:18.603Z,4.00
2023-01-05T21:45:58.546Z,3.73
2023-01-05T21:48:36.081Z,3.67
2023-01-05T21:51:26.019Z,3.57
2023-01-05T21:54:15.533Z,2.90
2023-01-05T21:56:52.530Z,2.57
2023-01-05T21:59:30.378Z,2.50
2023-01-05T22:02:10.183Z,2.77
2023-01-05T22:04:49.483Z,2.33
2023-01-05T22:07:26.720Z,2.50
2023-01-05T22:10:04.013Z,2.80
2023-01-05T22:12:41.576Z,2.30
2023-01-05T22:15:19.858Z,2.63
2023-01-05T22:17:59.962Z,2.27
2023-01-05T22:20:37.970Z,2.10
2023-01-05T22:23:16.050Z,2.03
